Time;durP1;ratioP1;P1;durP2;ratioP2;P2;SDS_P1;SDS_P2;PMS_P1;PMS_P2;Temp;Humidity;BMP_temperature;BMP_pressure;BME280_temperature;BME280_humidity;BME280_pressure;Samples;Min_cycle;Max_cycle;Signal;HPM_P1;HPM_P2
2023/12/04 00:01:51;;;;;;;1.50;1.40;;;;;;;5.41;nan;-20172.19;4955997;29;20178;-63
2023/12/04 00:04:16;;;;;;;1.27;1.20;;;;;;;5.30;nan;-19853.69;4955906;28;20278;-63
2023/12/04 00:06:42;;;;;;;1.90;1.80;;;;;;;5.24;nan;-18586.97;4956740;29;20265;-63
2023/12/04 00:09:07;;;;;;;1.70;1.60;;;;;;;5.30;nan;-15422.47;4956077;29;20182;-63
2023/12/04 00:11:33;;;;;;;1.33;1.27;;;;;;;4.97;nan;-14784.53;4955505;28;20182;-63
2023/12/04 00:13:59;;;;;;;1.13;1.13;;;;;;;5.06;nan;-17001.66;4955772;29;20178;-63
2023/12/04 00:16:24;;;;;;;1.40;1.30;;;;;;;5.16;nan;-17636.22;4955670;29;20560;-63
2023/12/04 00:18:50;;;;;;;1.23;1.23;;;;;;;5.10;nan;-17635.13;4955569;29;20178;-62
2023/12/04 00:21:15;;;;;;;1.40;1.40;;;;;;;5.12;nan;-17319.16;4955693;29;20321;-64
2023/12/04 00:23:40;;;;;;;3.70;1.83;;;;;;;5.02;nan;-17000.97;4955590;29;20213;-63
2023/12/04 00:26:06;;;;;;;1.40;1.30;;;;;;;;;;4938038;29;20218;-64
2023/12/04 00:28:31;;;;;;;1.60;1.50;;;;;;;4.92;nan;-15733.44;4955380;28;20232;-63
2023/12/04 00:30:57;;;;;;;1.60;1.50;;;;;;;4.85;nan;-16365.34;4955046;28;20182;-63
2023/12/04 00:33:22;;;;;;;1.50;1.40;;;;;;;4.69;nan;-16362.78;4953857;29;20192;-63
2023/12/04 00:35:48;;;;;;;1.67;1.57;;;;;;;4.86;nan;-16681.97;4953998;28;20638;-64
2023/12/04 00:38:13;;;;;;;1.80;1.70;;;;;;;4.80;nan;-17629.91;4937899;29;20642;-63
2023/12/04 00:40:38;;;;;;;1.43;1.33;;;;;;;4.81;nan;-16997.50;4955094;29;20214;-63
2023/12/04 00:43:04;;;;;;;1.27;1.20;;;;;;;4.55;nan;-16993.06;4955330;29;20174;-62
2023/12/04 00:45:29;;;;;;;1.20;1.20;;;;;;;4.62;nan;-17310.38;4954900;28;20596;-62
2023/12/04 00:47:55;;;;;;;6.03;1.60;;;;;;;4.59;nan;-16677.44;4955086;29;20644;-65
2023/12/04 00:50:20;;;;;;;1.10;1.10;;;;;;;4.59;nan;-15412.25;4955167;29;20679;-63
2023/12/04 00:52:46;;;;;;;1.33;1.33;;;;;;;4.71;nan;-16995.72;4954260;28;20268;-62
2023/12/04 00:55:11;;;;;;;1.07;1.07;;;;;;;4.75;nan;-16996.47;4954194;29;20233;-63
2023/12/04 00:57:37;;;;;;;1.77;1.67;;;;;;;4.75;nan;-17629.00;4953940;29;20173;-64
2023/12/04 01:00:03;;;;;;;1.60;1.50;;;;;;;4.64;nan;-17310.75;4953769;29;20265;-63
2023/12/04 01:02:28;;;;;;;1.37;1.33;;;;;;;4.56;nan;-16993.25;4953217;28;20178;-64
2023/12/04 01:04:54;;;;;;;1.57;1.47;;;;;;;4.71;nan;-16679.50;4952986;28;20217;-64
2023/12/04 01:07:19;;;;;;;1.47;1.37;;;;;;;4.75;nan;-16363.75;4953218;29;20228;-63
2023/12/04 01:09:44;;;;;;;1.37;1.27;;;;;;;4.79;nan;-16680.84;4952984;29;20245;-63
2023/12/04 01:12:10;;;;;;;2.23;2.03;;;;;;;4.79;nan;-15098.66;4953110;28;20269;-63
2023/12/04 01:14:38;;;;;;;1.53;1.43;;;;;;;4.62;nan;-13830.47;4953297;28;20182;-63
2023/12/04 01:17:03;;;;;;;2.03;1.93;;;;;;;4.66;nan;-14780.41;4936664;29;20649;-64
2023/12/04 01:19:29;;;;;;;1.23;1.23;;;;;;;4.58;nan;-14462.97;4954270;29;20194;-63
2023/12/04 01:21:54;;;;;;;1.17;1.17;;;;;;;4.72;nan;-14148.16;4954120;29;20178;-64
2023/12/04 01:24:20;;;;;;;1.50;1.40;;;;;;;4.60;nan;-15096.03;4936938;29;20206;-64
2023/12/04 01:26:45;;;;;;;1.80;1.70;;;;;;;4.41;nan;-16042.28;4954178;29;20197;-62
2023/12/04 01:29:10;;;;;;;2.77;1.90;;;;;;;4.72;nan;-16046.91;4954461;29;20274;-64
2023/12/04 01:31:36;;;;;;;1.43;1.33;;;;;;;4.70;nan;-14147.91;4954494;29;20201;-63
2023/12/04 01:34:01;;;;;;;1.10;1.10;;;;;;;4.71;nan;-14781.06;4954335;29;20182;-64
2023/12/04 01:36:27;;;;;;;1.20;1.20;;;;;;;4.39;nan;-14144.22;4954298;29;20653;-64
2023/12/04 01:38:52;;;;;;;1.37;1.30;;;;;;;4.58;nan;-14462.91;4936885;29;20714;-64
2023/12/04 01:41:17;;;;;;;1.67;1.57;;;;;;;4.39;nan;-10978.84;4953962;29;20189;-63
2023/12/04 01:43:43;;;;;;;1.70;1.60;;;;;;;4.53;nan;-9395.59;4954264;29;20284;-63
2023/12/04 01:46:09;;;;;;;1.53;1.43;;;;;;;;;;4953801;29;20792;-64
2023/12/04 01:48:36;;;;;;;1.00;1.00;;;;;;;4.23;nan;-11610.81;4953406;28;20220;-64
2023/12/04 01:51:07;;;;;;;1.07;1.07;;;;;;;4.11;nan;-12559.19;4954065;29;20174;-64
2023/12/04 01:53:35;;;;;;;1.20;1.20;;;;;;;4.50;nan;-14461.88;4954198;28;20176;-65
2023/12/04 01:56:00;;;;;;;1.40;1.40;;;;;;;4.37;nan;-15092.97;4954154;29;20170;-63
2023/12/04 01:58:26;;;;;;;1.37;1.30;;;;;;;4.37;nan;-15725.47;4953896;28;20197;-64
2023/12/04 02:00:51;;;;;;;1.80;1.70;;;;;;;4.26;nan;-15407.56;4953598;29;20261;-63
2023/12/04 02:03:17;;;;;;;1.30;1.30;;;;;;;4.30;nan;-14459.38;4953798;29;20178;-63
2023/12/04 02:05:44;;;;;;;1.50;1.43;;;;;;;4.29;nan;-14459.31;4953775;29;20210;-62
2023/12/04 02:08:10;;;;;;;1.37;1.30;;;;;;;4.15;nan;-13508.69;4953778;29;20189;-63
2023/12/04 02:10:36;;;;;;;1.20;1.20;;;;;;;4.36;nan;-12878.13;4955205;28;20178;-63
2023/12/04 02:13:02;;;;;;;2.30;1.83;;;;;;;4.20;nan;-11927.09;4953537;29;20635;-64
2023/12/04 02:15:27;;;;;;;1.50;1.40;;;;;;;4.21;nan;-12560.13;4953156;29;20178;-65
2023/12/04 02:17:53;;;;;;;2.30;1.70;;;;;;;4.41;nan;-13511.56;4953457;29;20289;-65
2023/12/04 02:20:18;;;;;;;1.70;1.60;;;;;;;4.44;nan;-11295.88;4953345;29;20201;-62
2023/12/04 02:22:44;;;;;;;1.63;1.53;;;;;;;4.36;nan;-10978.59;4953441;29;20182;-65
2023/12/04 02:25:10;;;;;;;3.77;1.57;;;;;;;4.33;nan;-10345.03;4953440;29;20288;-63
2023/12/04 02:27:52;;;;;;;1.30;1.20;;;;;;;4.18;nan;-10344.13;4953381;29;20178;-63
2023/12/04 02:30:19;;;;;;;1.10;1.10;;;;;;;4.38;nan;-8444.28;4953631;29;20170;-64
2023/12/04 02:32:47;;;;;;;1.47;1.40;;;;;;;4.44;nan;-6859.25;4953279;29;20177;-63
2023/12/04 02:35:15;;;;;;;1.20;1.20;;;;;;;4.46;nan;-5907.75;4953286;28;20661;-62
2023/12/04 02:37:42;;;;;;;1.00;1.00;;;;;;;4.46;nan;-6224.94;4953305;29;20178;-63
2023/12/04 02:40:10;;;;;;;1.27;1.27;;;;;;;4.51;nan;-5273.13;4953413;29;20178;-64
2023/12/04 02:42:35;;;;;;;1.20;1.20;;;;;;;4.51;nan;-4003.69;4953152;29;20716;-64
2023/12/04 02:45:01;;;;;;;1.27;1.23;;;;;;;4.42;nan;-1463.97;4953002;29;20209;-62
2023/12/04 02:47:26;;;;;;;1.63;1.53;;;;;;;4.27;nan;-830.13;4953206;29;20255;-63
2023/12/04 02:49:52;;;;;;;1.50;1.40;;;;;;;4.21;nan;1710.97;4953125;29;20170;-63
2023/12/04 02:52:18;;;;;;;1.70;1.60;;;;;;;4.15;nan;1074.63;4952865;29;20170;-63
2023/12/04 02:54:43;;;;;;;1.27;1.20;;;;;;;4.21;nan;1075.38;4953035;28;20572;-63
2023/12/04 02:57:09;;;;;;;1.50;1.40;;;;;;;4.41;nan;2349.63;4952862;29;20178;-61
2023/12/04 02:59:34;;;;;;;1.40;1.30;;;;;;;4.33;nan;759.06;4953056;28;20654;-64
2023/12/04 03:01:59;;;;;;;2.10;1.67;;;;;;;3.91;nan;-1150.97;4952668;29;20229;-64
2023/12/04 03:04:28;;;;;;;2.50;1.73;;;;;;;3.95;nan;1072.03;4952556;29;20284;-62
2023/12/04 03:06:53;;;;;;;2.80;1.43;;;;;;;3.90;nan;753.81;4952853;29;20261;-63
2023/12/04 03:09:19;;;;;;;1.50;1.40;;;;;;;3.94;nan;-1150.72;4952770;29;20279;-62
2023/12/04 03:11:44;;;;;;;1.10;1.10;;;;;;;4.06;nan;-1784.53;4952793;29;20212;-62
2023/12/04 03:14:09;;;;;;;1.60;1.50;;;;;;;3.88;nan;-3689.28;4952972;29;20196;-63
2023/12/04 03:16:35;;;;;;;1.53;1.33;;;;;;;3.52;nan;-5908.91;4952896;28;20233;-64
2023/12/04 03:19:00;;;;;;;1.40;1.30;;;;;;;3.59;nan;-8442.00;4953039;28;20181;-63
2023/12/04 03:21:26;;;;;;;1.33;1.33;;;;;;;3.87;nan;-9076.06;4952737;29;20250;-64
2023/12/04 03:23:51;;;;;;;1.23;1.23;;;;;;;3.89;nan;-6859.09;4952675;29;20182;-64
2023/12/04 03:26:16;;;;;;;1.20;1.20;;;;;;;3.65;nan;-6542.28;4952424;29;20328;-64
2023/12/04 03:28:42;;;;;;;1.23;1.23;;;;;;;3.78;nan;-4640.91;4953118;29;20182;-63
2023/12/04 03:31:09;;;;;;;1.37;1.30;;;;;;;3.65;nan;-4641.31;4952682;29;20647;-63
2023/12/04 03:33:35;;;;;;;1.30;1.30;;;;;;;3.65;nan;-1787.78;4952789;29;20757;-63
2023/12/04 03:36:00;;;;;;;1.37;1.27;;;;;;;3.91;nan;-198.66;4952650;29;20270;-64
2023/12/04 03:38:26;;;;;;;1.20;1.20;;;;;;;3.56;nan;-836.91;4952618;29;20233;-64
2023/12/04 03:40:52;;;;;;;1.10;1.10;;;;;;;3.85;nan;-1468.84;4952364;29;20178;-63
2023/12/04 03:43:17;;;;;;;1.47;1.37;;;;;;;3.84;nan;1070.63;4952428;29;20186;-64
2023/12/04 03:45:42;;;;;;;4.10;1.20;;;;;;;3.96;nan;1707.56;4952216;29;20209;-63
2023/12/04 03:48:08;;;;;;;1.63;1.53;;;;;;;4.03;nan;2979.66;4952202;29;20183;-63
2023/12/04 03:50:33;;;;;;;1.30;1.30;;;;;;;3.88;nan;2977.25;4952482;28;20178;-63
2023/12/04 03:52:59;;;;;;;1.10;1.10;;;;;;;3.88;nan;4884.59;4952275;29;20186;-63
2023/12/04 03:55:24;;;;;;;1.17;1.17;;;;;;;3.75;nan;5200.00;4952702;29;20243;-63
2023/12/04 03:57:50;;;;;;;1.70;1.60;;;;;;;3.69;nan;4563.00;4952432;29;20178;-63
2023/12/04 04:00:16;;;;;;;1.33;1.20;;;;;;;3.85;nan;4565.97;4952705;29;20248;-64
2023/12/04 04:02:43;;;;;;;1.10;1.10;;;;;;;3.76;nan;7108.22;4935384;29;20566;-63
2023/12/04 04:05:09;;;;;;;1.13;1.13;;;;;;;3.85;nan;8383.31;4952290;29;20220;-64
2023/12/04 04:07:34;;;;;;;1.87;1.53;;;;;;;3.71;nan;8698.03;4951740;28;20623;-62
2023/12/04 04:10:00;;;;;;;1.87;1.77;;;;;;;3.62;nan;8695.75;4951917;28;20572;-63
2023/12/04 04:12:26;;;;;;;1.00;1.00;;;;;;;3.25;nan;9322.53;4955248;29;20193;-63
2023/12/04 04:14:52;;;;;;;1.60;1.50;;;;;;;3.77;nan;10291.19;4957339;29;20233;-63
2023/12/04 04:17:17;;;;;;;1.43;1.40;;;;;;;3.61;nan;8695.38;4956123;29;20604;-63
2023/12/04 04:19:43;;;;;;;3.13;1.63;;;;;;;3.83;nan;9019.28;4938394;29;20620;-64
2023/12/04 04:22:08;;;;;;;2.47;1.57;;;;;;;3.78;nan;9336.44;4954328;29;20282;-65
2023/12/04 04:24:34;;;;;;;1.70;1.60;;;;;;;3.80;nan;7745.47;4955036;28;20260;-63
2023/12/04 04:26:59;;;;;;;1.40;1.30;;;;;;;3.48;nan;8692.31;4954559;28;20547;-63
2023/12/04 04:29:24;;;;;;;1.40;1.40;;;;;;;3.68;nan;9651.97;4955299;29;20574;-63
2023/12/04 04:31:50;;;;;;;1.67;1.57;;;;;;;3.68;nan;9015.38;4955084;29;20651;-63
2023/12/04 04:34:15;;;;;;;1.27;1.27;;;;;;;3.67;nan;8696.91;4937820;29;20224;-63
2023/12/04 04:36:42;;;;;;;1.60;1.50;;;;;;;3.39;nan;9644.38;4955061;29;20272;-63
2023/12/04 04:39:07;;;;;;;1.30;1.30;;;;;;;3.42;nan;11554.84;4954536;29;20178;-63
2023/12/04 04:41:33;;;;;;;1.00;1.00;;;;;;;3.45;nan;11237.41;4955035;28;20186;-62
2023/12/04 04:43:58;;;;;;;1.50;1.40;;;;;;;3.44;nan;11873.88;4954921;29;20166;-63
2023/12/04 04:46:26;;;;;;;1.20;1.20;;;;;;;3.49;nan;9965.31;4955007;29;20182;-65
2023/12/04 04:48:51;;;;;;;1.73;1.63;;;;;;;3.26;nan;14415.81;4953973;29;20181;-63
2023/12/04 04:51:17;;;;;;;1.80;1.70;;;;;;;3.23;nan;17282.94;4954088;28;20182;-65
2023/12/04 04:53:42;;;;;;;1.70;1.60;;;;;;;3.39;nan;17289.09;4953699;29;20365;-64
2023/12/04 04:56:09;;;;;;;1.20;1.20;;;;;;;3.05;nan;14408.47;4954074;29;20636;-63
2023/12/04 04:58:34;;;;;;;1.10;1.10;;;;;;;3.39;nan;14101.75;4953689;29;20217;-64
2023/12/04 05:00:59;;;;;;;1.73;1.63;;;;;;;3.06;nan;15045.97;4954323;29;20264;-63
2023/12/04 05:03:25;;;;;;;1.53;1.43;;;;;;;3.24;nan;16326.97;4954629;29;20272;-63
2023/12/04 05:05:50;;;;;;;1.57;1.47;;;;;;;3.07;nan;17276.75;4953992;28;20198;-64
2023/12/04 05:08:16;;;;;;;1.50;1.40;;;;;;;3.25;nan;16646.13;4953496;29;20186;-64
2023/12/04 05:10:42;;;;;;;1.50;1.40;;;;;;;3.29;nan;15691.25;4954186;29;20197;-64
2023/12/04 05:13:07;;;;;;;2.00;1.90;;;;;;;3.12;nan;16641.09;4952837;29;20614;-63
2023/12/04 05:15:33;;;;;;;1.47;1.37;;;;;;;2.99;nan;13451.28;4954243;29;20662;-65
2023/12/04 05:17:58;;;;;;;1.60;1.50;;;;;;;3.01;nan;13451.94;4953116;28;20708;-64
2023/12/04 05:20:24;;;;;;;1.33;1.27;;;;;;;3.10;nan;14728.72;4953017;29;20241;-64
2023/12/04 05:22:49;;;;;;;1.93;1.77;;;;;;;3.24;nan;17602.16;4951807;28;20193;-63
2023/12/04 05:25:14;;;;;;;2.03;1.83;;;;;;;3.04;nan;16000.75;4953867;28;20206;-64
2023/12/04 05:27:40;;;;;;;1.13;1.13;;;;;;;3.23;nan;16007.69;4954275;29;20175;-64
2023/12/04 05:30:06;;;;;;;1.13;1.13;;;;;;;3.27;nan;17922.25;4954147;28;20699;-66
2023/12/04 05:32:31;;;;;;;1.17;1.17;;;;;;;2.94;nan;18227.53;4953837;29;20182;-64
2023/12/04 05:34:57;;;;;;;1.50;1.40;;;;;;;3.32;nan;21114.91;4954133;29;20182;-64
2023/12/04 05:37:22;;;;;;;1.93;1.73;;;;;;;3.23;nan;23665.22;4953952;29;20556;-64
2023/12/04 05:39:48;;;;;;;1.30;1.27;;;;;;;3.15;nan;23661.19;4933468;29;20282;-63
2023/12/04 05:42:13;;;;;;;7.33;1.60;;;;;;;3.31;nan;24308.28;4935483;29;20177;-63
2023/12/04 05:44:38;;;;;;;1.97;1.63;;;;;;;3.36;nan;22394.28;4943231;29;20202;-63
2023/12/04 05:47:04;;;;;;;1.20;1.20;;;;;;;3.21;nan;21429.25;4934293;29;20610;-63
2023/12/04 05:49:30;;;;;;;2.00;1.37;;;;;;;3.09;nan;20147.31;4944662;29;20186;-63
2023/12/04 05:51:56;;;;;;;1.47;1.37;;;;;;;3.38;nan;22075.63;4942666;29;20537;-65
2023/12/04 05:54:21;;;;;;;1.27;1.23;;;;;;;3.25;nan;35506.59;4943660;28;20229;-63
2023/12/04 05:56:46;;;;;;;1.83;1.73;;;;;;;;;;4941890;29;20179;-65
2023/12/04 05:59:12;;;;;;;2.10;1.40;;;;;;;2.94;nan;52467.38;4934773;29;20229;-64
2023/12/04 06:01:37;;;;;;;1.77;1.67;;;;;;;3.14;nan;52305.94;4951213;29;20515;-65
2023/12/04 06:04:03;;;;;;;1.20;1.20;;;;;;;3.07;nan;49989.84;4953534;29;20170;-65
2023/12/04 06:06:29;;;;;;;1.87;1.73;;;;;;;2.97;nan;47617.91;4953382;29;20356;-63
2023/12/04 06:08:54;;;;;;;1.20;1.20;;;;;;;3.09;nan;41849.03;4953712;29;20189;-63
2023/12/04 06:11:19;;;;;;;1.30;1.20;;;;;;;2.91;nan;38047.63;4953604;29;20178;-64
2023/12/04 06:13:45;;;;;;;1.70;1.60;;;;;;;3.02;nan;31967.63;4953361;29;20210;-65
2023/12/04 06:16:10;;;;;;;1.20;1.20;;;;;;;2.87;nan;27800.06;4953299;29;20234;-64
2023/12/04 06:18:35;;;;;;;1.33;1.30;;;;;;;3.06;nan;26852.16;4954061;28;20261;-63
2023/12/04 06:21:02;;;;;;;1.47;1.37;;;;;;;3.04;nan;28769.16;4951294;28;20186;-64
2023/12/04 06:23:27;;;;;;;1.10;1.10;;;;;;;3.01;nan;27169.00;4953155;29;20637;-63
2023/12/04 06:25:53;;;;;;;1.43;1.33;;;;;;;3.28;nan;31023.72;4952778;29;20204;-63
2023/12/04 06:28:19;;;;;;;2.23;1.60;;;;;;;3.41;nan;31672.09;4952788;29;20167;-63
2023/12/04 06:30:44;;;;;;;1.30;1.30;;;;;;;3.34;nan;38497.56;4952994;29;20374;-67
2023/12/04 06:33:10;;;;;;;2.03;1.93;;;;;;;3.40;nan;41567.91;4952854;28;20613;-66
2023/12/04 06:35:36;;;;;;;1.30;1.30;;;;;;;3.30;nan;44182.63;4952492;29;20186;-63
2023/12/04 06:38:06;;;;;;;1.70;1.43;;;;;;;3.36;nan;46811.16;4952621;29;20561;-63
2023/12/04 06:40:32;;;;;;;1.70;1.43;;;;;;;3.50;nan;46682.44;4952259;29;20210;-64
2023/12/04 06:42:58;;;;;;;1.40;1.40;;;;;;;3.51;nan;47946.00;4952486;29;20272;-65
2023/12/04 06:45:24;;;;;;;1.10;1.10;;;;;;;3.37;nan;49034.69;4952373;29;20615;-64
2023/12/04 06:47:50;;;;;;;1.50;1.40;;;;;;;3.31;nan;47389.81;4950932;29;20173;-63
2023/12/04 06:50:16;;;;;;;1.50;1.40;;;;;;;3.38;nan;44588.78;4950826;28;20185;-62
2023/12/04 06:52:41;;;;;;;1.10;1.10;;;;;;;3.31;nan;45768.91;4950770;29;20170;-62
2023/12/04 06:55:08;;;;;;;1.23;1.23;;;;;;;3.12;nan;49453.94;4950715;29;20225;-65
2023/12/04 06:57:33;;;;;;;1.20;1.20;;;;;;;3.64;nan;48364.47;4950516;29;20647;-63
2023/12/04 06:59:59;;;;;;;1.50;1.40;;;;;;;3.70;nan;50249.94;4950609;29;20181;-63
2023/12/04 07:02:24;;;;;;;1.63;1.30;;;;;;;3.71;nan;48667.78;4951892;29;20569;-62
2023/12/04 07:04:50;;;;;;;1.30;1.30;;;;;;;3.69;nan;50707.16;4934712;29;20289;-63
2023/12/04 07:07:15;;;;;;;1.30;1.30;;;;;;;3.52;nan;51275.81;4952994;29;20266;-64
2023/12/04 07:09:41;;;;;;;1.23;1.23;;;;;;;3.68;nan;49893.56;4952934;29;20261;-62
2023/12/04 07:12:06;;;;;;;1.73;1.63;;;;;;;3.59;nan;48042.94;4952889;29;20178;-63
2023/12/04 07:14:33;;;;;;;1.47;1.37;;;;;;;3.62;nan;49688.63;4952718;28;20182;-64
2023/12/04 07:16:59;;;;;;;1.70;1.60;;;;;;;3.80;nan;49139.19;4952474;29;20178;-64
2023/12/04 07:19:25;;;;;;;1.07;1.07;;;;;;;3.84;nan;51555.66;4952441;29;20185;-63
2023/12/04 07:21:50;;;;;;;1.20;1.20;;;;;;;3.97;nan;52152.41;4953447;29;20682;-63
2023/12/04 07:24:16;;;;;;;1.33;1.30;;;;;;;4.07;nan;53442.28;4952306;29;20776;-63
2023/12/04 07:26:41;;;;;;;1.60;1.50;;;;;;;4.08;nan;53178.56;4952471;29;20186;-62
2023/12/04 07:29:07;;;;;;;1.50;1.40;;;;;;;4.04;nan;53152.38;4952893;29;20181;-63
2023/12/04 07:31:32;;;;;;;1.00;1.00;;;;;;;3.97;nan;52459.84;4952616;29;20625;-63
2023/12/04 07:34:00;;;;;;;1.13;1.13;;;;;;;4.03;nan;53527.00;4952013;28;20569;-63
2023/12/04 07:36:25;;;;;;;1.27;1.27;;;;;;;4.08;nan;54563.44;4952369;29;20185;-63
2023/12/04 07:38:51;;;;;;;1.40;1.30;;;;;;;4.08;nan;53624.81;4952463;29;20182;-63
2023/12/04 07:41:17;;;;;;;1.20;1.20;;;;;;;4.35;nan;51597.22;4935160;29;20185;-64
2023/12/04 07:43:43;;;;;;;1.20;1.20;;;;;;;4.28;nan;55221.78;4952257;29;20205;-62
2023/12/04 07:46:10;;;;;;;1.53;1.43;;;;;;;4.45;nan;56191.63;4954433;28;20614;-64
2023/12/04 07:48:35;;;;;;;1.27;1.27;;;;;;;4.51;nan;56446.88;4955805;29;20201;-64
2023/12/04 07:51:01;;;;;;;1.60;1.50;;;;;;;;;;4956184;29;20177;-64
2023/12/04 07:53:26;;;;;;;1.20;1.20;;;;;;;4.52;nan;56137.34;4955745;29;20206;-63
2023/12/04 07:55:52;;;;;;;1.97;1.70;;;;;;;4.28;nan;56799.84;4955522;29;20211;-63
2023/12/04 07:58:18;;;;;;;1.33;1.33;;;;;;;4.54;nan;56604.09;4955825;29;20634;-63
2023/12/04 08:00:46;;;;;;;1.80;1.60;;;;;;;4.56;nan;56285.47;4956009;28;20193;-63
2023/12/04 08:03:12;;;;;;;1.60;1.50;;;;;;;4.53;nan;56421.22;4938292;29;20672;-64
2023/12/04 08:05:37;;;;;;;1.43;1.37;;;;;;;4.70;nan;56012.78;4955547;29;20210;-66
2023/12/04 08:08:03;;;;;;;1.30;1.27;;;;;;;4.66;nan;55950.50;4955969;29;20189;-64
2023/12/04 08:10:28;;;;;;;1.20;1.20;;;;;;;4.56;nan;56894.16;4955760;29;20174;-64
2023/12/04 08:12:54;;;;;;;1.30;1.20;;;;;;;4.59;nan;57127.72;4955513;29;20269;-63
2023/12/04 08:15:19;;;;;;;2.13;1.60;;;;;;;4.71;nan;57683.28;4955363;29;20253;-63
2023/12/04 08:17:44;;;;;;;1.60;1.50;;;;;;;4.42;nan;57655.16;4955260;28;20630;-62
2023/12/04 08:20:13;;;;;;;1.20;1.20;;;;;;;4.43;nan;57285.50;4955951;29;20253;-63
2023/12/04 08:22:41;;;;;;;1.33;1.27;;;;;;;4.66;nan;57185.19;4956168;29;20237;-63
2023/12/04 08:25:07;;;;;;;1.83;1.73;;;;;;;4.95;nan;57147.38;4955604;29;20197;-65
2023/12/04 08:27:32;;;;;;;1.30;1.20;;;;;;;5.20;nan;57129.03;4955506;29;20544;-63
2023/12/04 08:29:58;;;;;;;1.10;1.10;;;;;;;5.37;nan;57599.41;4955478;29;20174;-63
2023/12/04 08:32:26;;;;;;;1.60;1.50;;;;;;;5.24;nan;57886.97;4955190;29;20178;-64
2023/12/04 08:34:51;;;;;;;1.83;1.73;;;;;;;5.50;nan;58126.53;4955282;29;20257;-64
2023/12/04 08:37:18;;;;;;;1.60;1.40;;;;;;;5.22;nan;57965.78;4954952;29;20182;-63
2023/12/04 08:39:43;;;;;;;1.57;1.47;;;;;;;5.28;nan;58247.44;4955124;28;20181;-63
2023/12/04 08:42:09;;;;;;;1.50;1.40;;;;;;;5.23;nan;58295.13;4954718;29;20174;-63
2023/12/04 08:44:35;;;;;;;1.13;1.13;;;;;;;5.18;nan;58241.69;4955006;28;20212;-63
2023/12/04 08:47:00;;;;;;;1.47;1.30;;;;;;;5.18;nan;58095.50;4954563;29;20259;-63
2023/12/04 08:49:26;;;;;;;1.07;1.07;;;;;;;5.27;nan;58100.16;4955165;29;20262;-63
2023/12/04 08:51:52;;;;;;;1.60;1.50;;;;;;;5.25;nan;58135.41;4955021;29;20512;-64
2023/12/04 08:54:18;;;;;;;1.53;1.43;;;;;;;5.55;nan;57823.69;4954875;29;20763;-63
2023/12/04 08:56:44;;;;;;;2.07;1.57;;;;;;;5.88;nan;57835.97;4954518;28;20257;-65
2023/12/04 08:59:09;;;;;;;1.53;1.37;;;;;;;5.76;nan;58114.69;4954734;29;20233;-63
2023/12/04 09:01:36;;;;;;;1.87;1.77;;;;;;;5.65;nan;57859.25;4954665;29;20184;-62
2023/12/04 09:04:01;;;;;;;2.57;2.37;;;;;;;6.26;nan;58729.75;4955281;29;20516;-63
2023/12/04 09:06:27;;;;;;;1.20;1.20;;;;;;;6.18;nan;58747.47;4954476;28;20277;-64
2023/12/04 09:08:52;;;;;;;1.20;1.20;;;;;;;6.34;nan;59100.97;4954657;29;20300;-63
2023/12/04 09:11:18;;;;;;;1.73;1.57;;;;;;;6.32;nan;58974.56;4954303;29;20701;-64
2023/12/04 09:13:43;;;;;;;1.90;1.53;;;;;;;6.43;nan;59077.88;4954549;28;20178;-65
2023/12/04 09:16:09;;;;;;;1.60;1.50;;;;;;;6.28;nan;58846.00;4954437;28;20178;-63
2023/12/04 09:18:34;;;;;;;1.60;1.50;;;;;;;6.58;nan;58945.31;4954488;29;20174;-65
2023/12/04 09:20:59;;;;;;;1.37;1.30;;;;;;;6.53;nan;58974.75;4954321;29;20189;-63
2023/12/04 09:23:25;;;;;;;3.37;1.60;;;;;;;6.95;nan;58992.91;4937095;29;20611;-63
2023/12/04 09:25:50;;;;;;;1.10;1.10;;;;;;;6.91;nan;59107.22;4954282;28;20205;-64
2023/12/04 09:28:16;;;;;;;1.30;1.30;;;;;;;7.18;nan;59261.25;4954386;29;20229;-63
2023/12/04 09:30:42;;;;;;;1.50;1.40;;;;;;;7.27;nan;59344.25;4954098;29;20178;-62
2023/12/04 09:33:07;;;;;;;1.20;1.20;;;;;;;7.20;nan;59445.69;4954455;29;20174;-64
2023/12/04 09:35:32;;;;;;;1.53;1.43;;;;;;;7.28;nan;59563.69;4954018;29;20182;-63
2023/12/04 09:37:58;;;;;;;1.23;1.23;;;;;;;7.16;nan;59980.06;4954091;29;20174;-63
2023/12/04 09:40:24;;;;;;;2.07;1.43;;;;;;;7.15;nan;59965.69;4954041;28;20214;-63
2023/12/04 09:42:50;;;;;;;1.70;1.60;;;;;;;7.06;nan;59925.75;4954372;29;20215;-63
2023/12/04 09:45:17;;;;;;;1.47;1.37;;;;;;;7.24;nan;60064.56;4953345;29;20273;-64
2023/12/04 09:47:42;;;;;;;3.10;1.63;;;;;;;7.17;nan;60214.19;4952649;28;20182;-63
2023/12/04 09:50:08;;;;;;;1.27;1.27;;;;;;;7.27;nan;60139.56;4936329;29;20197;-63
2023/12/04 09:52:35;;;;;;;1.10;1.10;;;;;;;7.24;nan;60199.16;4953650;29;20189;-64
2023/12/04 09:55:00;;;;;;;2.30;1.43;;;;;;;7.26;nan;60188.69;4953356;29;20233;-64
2023/12/04 09:57:27;;;;;;;1.50;1.40;;;;;;;7.54;nan;60138.63;4953393;29;20245;-63
2023/12/04 09:59:53;;;;;;;1.50;1.40;;;;;;;7.71;nan;60207.88;4953162;29;20188;-63
2023/12/04 10:02:19;;;;;;;1.13;1.13;;;;;;;7.27;nan;60210.13;4953460;29;20182;-63
2023/12/04 10:04:46;;;;;;;1.20;1.20;;;;;;;7.44;nan;60401.84;4953279;29;20256;-63
2023/12/04 10:07:11;;;;;;;1.50;1.40;;;;;;;7.48;nan;60257.00;4953326;29;20643;-64
2023/12/04 10:09:37;;;;;;;1.40;1.30;;;;;;;7.45;nan;60265.78;4952818;28;20209;-64
2023/12/04 10:12:03;;;;;;;2.50;1.40;;;;;;;7.37;nan;60318.38;4952889;29;20221;-64
2023/12/04 10:14:28;;;;;;;1.70;1.60;;;;;;;7.84;nan;60228.03;4952847;28;20190;-64
2023/12/04 10:16:54;;;;;;;1.40;1.33;;;;;;;7.72;nan;60399.63;4953241;29;20210;-62
2023/12/04 10:19:27;;;;;;;1.63;1.53;;;;;;;7.77;nan;60276.13;4953206;29;20178;-63
2023/12/04 10:21:56;;;;;;;1.77;1.67;;;;;;;7.93;nan;60435.84;4953146;29;20217;-64
2023/12/04 10:24:32;;;;;;;1.20;1.10;;;;;;;7.99;nan;60349.03;4952884;28;20241;-63
2023/12/04 10:26:58;;;;;;;1.47;1.27;;;;;;;8.18;nan;60308.13;4952872;29;20232;-64
2023/12/04 10:29:25;;;;;;;1.70;1.60;;;;;;;7.91;nan;60479.34;4952729;29;20174;-63
2023/12/04 10:31:52;;;;;;;1.47;1.30;;;;;;;8.05;nan;60248.38;4952875;29;20178;-64
2023/12/04 10:34:17;;;;;;;1.70;1.60;;;;;;;8.22;nan;60264.84;4952586;29;20178;-63
2023/12/04 10:36:45;;;;;;;1.40;1.30;;;;;;;7.90;nan;60260.16;4952659;29;20642;-64
2023/12/04 10:39:13;;;;;;;1.20;1.20;;;;;;;7.84;nan;60225.50;4952641;28;20734;-64
2023/12/04 10:41:39;;;;;;;1.80;1.50;;;;;;;7.82;nan;60352.88;4952161;29;20181;-63
2023/12/04 10:44:04;;;;;;;1.40;1.30;;;;;;;7.95;nan;60260.66;4952971;29;20166;-64
2023/12/04 10:46:31;;;;;;;2.13;1.83;;;;;;;8.20;nan;60427.91;4952406;29;20202;-66
2023/12/04 10:48:56;;;;;;;1.40;1.30;;;;;;;8.12;nan;60314.13;4935112;29;20212;-63
2023/12/04 10:51:23;;;;;;;1.33;1.27;;;;;;;8.06;nan;60396.41;4952321;29;20197;-66
2023/12/04 10:53:49;;;;;;;1.63;1.53;;;;;;;8.30;nan;60395.34;4952204;28;20233;-64
2023/12/04 10:56:20;;;;;;;1.63;1.53;;;;;;;8.38;nan;60432.28;4952295;29;20170;-63
2023/12/04 10:58:50;;;;;;;1.60;1.50;;;;;;;8.31;nan;60358.28;4952610;29;20713;-65
2023/12/04 11:01:17;;;;;;;1.20;1.20;;;;;;;8.24;nan;60373.88;4952483;29;20182;-63
2023/12/04 11:03:53;;;;;;;1.47;1.20;;;;;;;8.41;nan;60405.66;4952250;29;20174;-63
2023/12/04 11:06:21;;;;;;;1.43;1.33;;;;;;;7.92;nan;60455.59;4952220;28;20212;-64
2023/12/04 11:08:52;;;;;;;1.57;1.47;;;;;;;8.52;nan;60376.13;4952128;29;20672;-64
2023/12/04 11:11:36;;;;;;;1.50;1.40;;;;;;;8.48;nan;60600.69;4952438;29;20166;-62
2023/12/04 11:14:05;;;;;;;1.77;1.67;;;;;;;8.29;nan;60480.69;4951842;29;20190;-63
2023/12/04 11:16:47;;;;;;;1.43;1.33;;;;;;;8.63;nan;60561.53;4952425;29;20269;-63
2023/12/04 11:19:39;;;;;;;1.75;1.38;;;;;;;8.34;nan;60374.94;4933148;29;20190;-63
2023/12/04 11:22:07;;;;;;;1.77;1.67;;;;;;;8.15;nan;60389.25;4944514;29;20189;-63
2023/12/04 11:24:32;;;;;;;1.93;1.37;;;;;;;8.24;nan;60457.28;4955667;29;20280;-67
2023/12/04 11:26:58;;;;;;;1.47;1.37;;;;;;;8.36;nan;60597.97;4955736;29;20682;-64
2023/12/04 11:29:24;;;;;;;1.40;1.30;;;;;;;8.33;nan;60567.16;4956663;29;20553;-62
2023/12/04 11:31:50;;;;;;;1.17;1.17;;;;;;;8.57;nan;60414.81;4955804;29;20178;-64
2023/12/04 11:34:15;;;;;;;2.38;1.52;;;;;;;8.62;nan;60410.78;4955976;29;20182;-64
2023/12/04 11:36:41;;;;;;;1.80;1.58;;;;;;;8.82;nan;60522.31;4955703;29;20178;-64
2023/12/04 11:39:10;;;;;;;1.65;1.52;;;;;;;8.88;nan;60550.81;4955950;29;20590;-64
2023/12/04 11:41:36;;;;;;;5.30;1.60;;;;;;;8.92;nan;60530.41;4955804;29;20167;-65
2023/12/04 11:44:02;;;;;;;1.60;1.50;;;;;;;5.16;nan;60182.59;4955329;29;20280;-64
2023/12/04 11:46:30;;;;;;;1.48;1.38;;;;;;;8.66;nan;60611.28;4938265;29;20206;-64
2023/12/04 11:49:25;;;;;;;1.50;1.40;;;;;;;9.03;nan;60623.69;4955402;29;20289;-63
2023/12/04 11:51:52;;;;;;;1.75;1.65;;;;;;;8.97;nan;60502.34;4945378;28;20670;-64
2023/12/04 11:54:19;;;;;;;1.45;1.35;;;;;;;8.82;nan;60639.44;4955455;28;20657;-64
2023/12/04 11:57:10;;;;;;;1.55;1.45;;;;;;;9.03;nan;60552.34;4955539;29;20186;-64